Time;durP1;ratioP1;P1;durP2;ratioP2;P2;SDS_P1;SDS_P2;PMS_P1;PMS_P2;Temp;Humidity;BMP_temperature;BMP_pressure;BME280_temperature;BME280_humidity;BME280_pressure;Samples;Min_cycle;Max_cycle;Signal;HPM_P1;HPM_P2
2021/09/04 00:00:00;;;;;;;;;;;;;;;;;;2088143;28;1867;-79
2021/09/04 00:01:01;;;;;;;;;;;;;;;;;;2092011;28;1278;-80
2021/09/04 00:02:03;;;;;;;;;;;;;;;;;;2097032;28;2047;-80
2021/09/04 00:03:04;;;;;;;;;;;;;;;;;;2084080;28;1541;-80
2021/09/04 00:04:05;;;;;;;;;;;;;;;;;;2083675;28;1513;-79
2021/09/04 00:05:07;;;;;;;;;;;;;;;;;;2092041;28;1890;-80
2021/09/04 00:06:11;;;;;;;;;;;;;;;;;;2092223;28;1496;-80
2021/09/04 00:07:11;;;;;;;;;;;;;;;;;;2095591;28;1884;-80
2021/09/04 00:08:13;;;;;;;;;;;;;;;;;;2083955;28;1717;-80
2021/09/04 00:09:14;;;;;;;;;;;;;;;;;;2092322;28;1527;-79
2021/09/04 00:10:17;;;;;;;;;;;;;;;;;;2096624;28;2103;-80
2021/09/04 00:11:18;;;;;;;;;;;;;;;;;;2092170;28;1567;-80
2021/09/04 00:12:22;;;;;;;;;;;;;;;;;;2099142;28;1997;-80
2021/09/04 00:13:24;;;;;;;;;;;;;;;;;;2092026;28;1218;-81
2021/09/04 00:14:29;;;;;;;;;;;;;;;;;;2084076;28;1740;-80
2021/09/04 00:15:31;;;;;;;;;;;;;;;;;;2083814;28;1647;-81
2021/09/04 00:16:33;;;;;;;;;;;;;;;;;;2092220;28;1645;-80
2021/09/04 00:17:34;;;;;;;;;;;;;;;;;;2084129;28;1543;-80
2021/09/04 00:18:35;;;;;;;;;;;;;;;;;;2083899;28;1266;-81
2021/09/04 00:19:37;;;;;;;;;;;;;;;;;;2075535;28;1521;-81
2021/09/04 00:20:39;;;;;;;;;;;;;;;;;;2083990;28;1718;-81
2021/09/04 00:21:41;;;;;;;;;;;;;;;;;;2099742;28;2034;-81
2021/09/04 00:22:43;;;;;;;;;;;;;;;;;;2092120;28;1664;-80
2021/09/04 00:23:44;;;;;;;;;;;;;;;;;;2083669;28;1221;-80
2021/09/04 00:24:45;;;;;;;;;;;;;;;;;;2083739;28;1742;-80
2021/09/04 00:25:46;;;;;;;;;;;;;;;;;;2083758;28;1236;-80
2021/09/04 00:26:48;;;;;;;;;;;;;;;;;;2083394;28;1543;-80
2021/09/04 00:27:48;;;;;;;;;;;;;;;;;;2083731;28;1638;-80
2021/09/04 00:28:50;;;;;;;;;;;;;;;;;;2083454;28;1723;-80
2021/09/04 00:29:51;;;;;;;;;;;;;;;;;;2083203;28;2056;-79
2021/09/04 00:30:52;;;;;;;;;;;;;;;;;;2083582;28;1718;-79
2021/09/04 00:31:54;;;;;;;;;;;;;;;;;;2075361;28;2012;-80
2021/09/04 00:32:55;;;;;;;;;;;;;;;;;;2083705;28;1585;-80
2021/09/04 00:33:56;;;;;;;;;;;;;;;;;;2091755;28;1239;-77
2021/09/04 00:34:58;;;;;;;;;;;;;;;;;;2083656;28;1833;-78
2021/09/04 00:35:59;;;;;;;;;;;;;;;;;;2083276;28;1689;-78
2021/09/04 00:37:02;;;;;;;;;;;;;;;;;;2085608;28;2094;-78
2021/09/04 00:38:02;;;;;;;;;;;;;;;;;;2083839;28;1364;-78
2021/09/04 00:39:04;;;;;;;;;;;;;;;;;;2083646;28;1525;-80
2021/09/04 00:40:05;;;;;;;;;;;;;;;;;;2087115;28;2034;-81
2021/09/04 00:41:07;;;;;;;;;;;;;;;;;;2091591;28;1507;-81
2021/09/04 00:42:08;;;;;;;;;;;;;;;;;;2091584;28;1480;-80
2021/09/04 00:43:10;;;;;;;;;;;;;;;;;;2083562;28;1575;-79
2021/09/04 00:44:13;;;;;;;;;;;;;;;;;;2075485;28;1700;-79
2021/09/04 00:45:15;;;;;;;;;;;;;;;;;;2079746;28;1863;-79
2021/09/04 00:46:16;;;;;;;;;;;;;;;;;;2083466;28;1553;-79
2021/09/04 00:47:17;;;;;;;;;;;;;;;;;;2091854;28;1664;-79
2021/09/04 00:48:18;;;;;;;;;;;;;;;;;;2083231;28;1554;-79
2021/09/04 00:49:20;;;;;;;;;;;;;;;;;;2075442;28;1630;-79
2021/09/04 00:50:21;;;;;;;;;;;;;;;;;;2075761;28;2022;-79
2021/09/04 00:51:23;;;;;;;;;;;;;;;;;;2091936;28;1739;-79
2021/09/04 00:52:25;;;;;;;;;;;;;;;;;;2092219;28;1547;-79
2021/09/04 00:53:26;;;;;;;;;;;;;;;;;;2083130;28;1739;-79
2021/09/04 00:54:27;;;;;;;;;;;;;;;;;;2092084;28;902;-79
2021/09/04 00:55:29;;;;;;;;;;;;;;;;;;2098019;28;1862;-79
2021/09/04 00:56:30;;;;;;;;;;;;;;;;;;2091716;28;1672;-79
2021/09/04 00:57:32;;;;;;;;;;;;;;;;;;2091494;28;1775;-79
2021/09/04 00:58:34;;;;;;;;;;;;;;;;;;2091957;28;1691;-79
2021/09/04 00:59:36;;;;;;;;;;;;;;;;;;2091471;28;1573;-79
2021/09/04 01:00:37;;;;;;;;;;;;;;;;;;2083835;28;1847;-79
2021/09/04 01:01:40;;;;;;;;;;;;;;;;;;2091409;28;1846;-80
2021/09/04 01:02:41;;;;;;;;;;;;;;;;;;2098716;28;1735;-79
2021/09/04 01:03:43;;;;;;;;;;;;;;;;;;2091377;28;1747;-79
2021/09/04 01:04:44;;;;;;;;;;;;;;;;;;2098994;28;1845;-79
2021/09/04 01:05:48;;;;;;;;;;;;;;;;;;2091581;28;1626;-79
2021/09/04 01:06:49;;;;;;;;;;;;;;;;;;2091861;28;850;-79
2021/09/04 01:07:54;;;;;;;;;;;;;;;;;;2091485;28;1585;-79
2021/09/04 01:08:55;;;;;;;;;;;;;;;;;;2091867;28;830;-79
2021/09/04 01:09:57;;;;;;;;;;;;;;;;;;2091592;28;1981;-79
2021/09/04 01:10:58;;;;;;;;;;;;;;;;;;2091986;28;1274;-79
2021/09/04 01:12:00;;;;;;;;;;;;;;;;;;2091014;28;1575;-79
2021/09/04 01:13:02;;;;;;;;;;;;;;;;;;2091749;28;1557;-79
2021/09/04 01:14:04;;;;;;;;;;;;;;;;;;2082650;28;1693;-79
2021/09/04 01:15:06;;;;;;;;;;;;;;;;;;2094957;28;1869;-79
2021/09/04 01:16:07;;;;;;;;;;;;;;;;;;2099686;28;1584;-79
2021/09/04 01:17:08;;;;;;;;;;;;;;;;;;2091109;28;2015;-79
2021/09/04 01:18:10;;;;;;;;;;;;;;;;;;2082892;28;1712;-80
2021/09/04 01:19:11;;;;;;;;;;;;;;;;;;2091686;28;1686;-79
2021/09/04 01:20:13;;;;;;;;;;;;;;;;;;2095554;28;1870;-79
2021/09/04 01:21:14;;;;;;;;;;;;;;;;;;2091615;28;1563;-79
2021/09/04 01:22:15;;;;;;;;;;;;;;;;;;2087046;28;1904;-79
2021/09/04 01:23:17;;;;;;;;;;;;;;;;;;2083591;28;1530;-79
2021/09/04 01:24:19;;;;;;;;;;;;;;;;;;2091218;28;1088;-79
2021/09/04 01:25:22;;;;;;;;;;;;;;;;;;2096943;28;1864;-79
2021/09/04 01:26:26;;;;;;;;;;;;;;;;;;2091715;28;1654;-79
2021/09/04 01:27:27;;;;;;;;;;;;;;;;;;2092649;28;2002;-80
2021/09/04 01:28:29;;;;;;;;;;;;;;;;;;2083203;28;1797;-79
2021/09/04 01:29:29;;;;;;;;;;;;;;;;;;2083675;28;1703;-79
2021/09/04 01:30:31;;;;;;;;;;;;;;;;;;2097346;28;2016;-79
2021/09/04 01:31:32;;;;;;;;;;;;;;;;;;2091346;28;1551;-79
2021/09/04 01:32:34;;;;;;;;;;;;;;;;;;2090123;28;1876;-79
2021/09/04 01:33:41;;;;;;;;;;;;;;;;;;2091599;28;1524;-79
2021/09/04 01:34:42;;;;;;;;;;;;;;;;;;2084129;28;2036;-80
2021/09/04 01:35:43;;;;;;;;;;;;;;;;;;2091576;28;1529;-80
2021/09/04 01:36:45;;;;;;;;;;;;;;;;;;2090682;28;2058;-80
2021/09/04 01:37:46;;;;;;;;;;;;;;;;;;2082927;28;1216;-80
2021/09/04 01:38:47;;;;;;;;;;;;;;;;;;2083290;28;1580;-80
2021/09/04 01:39:48;;;;;;;;;;;;;;;;;;2092178;28;2088;-80
2021/09/04 01:40:50;;;;;;;;;;;;;;;;;;2091228;28;1540;-78
2021/09/04 01:41:52;;;;;;;;;;;;;;;;;;2091035;28;1200;-77
2021/09/04 01:42:54;;;;;;;;;;;;;;;;;;2082962;28;1641;-80
2021/09/04 01:43:56;;;;;;;;;;;;;;;;;;2083231;28;1657;-80
2021/09/04 01:44:57;;;;;;;;;;;;;;;;;;2084920;28;2053;-79
2021/09/04 01:45:58;;;;;;;;;;;;;;;;;;2082882;28;1546;-79
2021/09/04 01:47:00;;;;;;;;;;;;;;;;;;2085803;28;2051;-81
2021/09/04 01:48:00;;;;;;;;;;;;;;;;;;2091312;28;1549;-79
2021/09/04 01:49:02;;;;;;;;;;;;;;;;;;2099318;28;1373;-79
2021/09/04 01:50:03;;;;;;;;;;;;;;;;;;2099323;28;2023;-79
2021/09/04 01:51:05;;;;;;;;;;;;;;;;;;2091637;28;1906;-79
2021/09/04 01:52:06;;;;;;;;;;;;;;;;;;2095988;28;1950;-79
2021/09/04 01:53:08;;;;;;;;;;;;;;;;;;2083228;28;1565;-79
2021/09/04 01:54:08;;;;;;;;;;;;;;;;;;2091291;28;1706;-79
2021/09/04 01:55:12;;;;;;;;;;;;;;;;;;2083110;28;1781;-79
2021/09/04 01:56:13;;;;;;;;;;;;;;;;;;2091061;28;823;-80
2021/09/04 01:57:16;;;;;;;;;;;;;;;;;;2095359;28;1911;-80
2021/09/04 01:58:17;;;;;;;;;;;;;;;;;;2099523;28;817;-79
2021/09/04 01:59:18;;;;;;;;;;;;;;;;;;2099500;28;1793;-79
2021/09/04 02:00:19;;;;;;;;;;;;;;;;;;2098111;28;1951;-79
2021/09/04 02:01:21;;;;;;;;;;;;;;;;;;2091360;28;1753;-79
2021/09/04 02:02:22;;;;;;;;;;;;;;;;;;2088306;28;2074;-79
2021/09/04 02:03:24;;;;;;;;;;;;;;;;;;2091220;28;1616;-79
2021/09/04 02:04:24;;;;;;;;;;;;;;;;;;2091507;28;1529;-79
2021/09/04 02:05:26;;;;;;;;;;;;;;;;;;2098856;28;1865;-79
2021/09/04 02:06:29;;;;;;;;;;;;;;;;;;2091356;28;1354;-79
2021/09/04 02:07:31;;;;;;;;;;;;;;;;;;2090233;28;2094;-79
2021/09/04 02:08:32;;;;;;;;;;;;;;;;;;2091378;28;1305;-79
2021/09/04 02:09:33;;;;;;;;;;;;;;;;;;2082788;28;1344;-79
2021/09/04 02:10:34;;;;;;;;;;;;;;;;;;2082793;28;1972;-79
2021/09/04 02:11:36;;;;;;;;;;;;;;;;;;2082832;28;1606;-79
2021/09/04 02:12:38;;;;;;;;;;;;;;;;;;2089969;28;1904;-79
2021/09/04 02:13:39;;;;;;;;;;;;;;;;;;2091297;28;910;-79
2021/09/04 02:14:40;;;;;;;;;;;;;;;;;;2090955;28;1671;-79
2021/09/04 02:15:42;;;;;;;;;;;;;;;;;;2082889;28;1693;-79
2021/09/04 02:16:44;;;;;;;;;;;;;;;;;;2091171;28;1871;-79
2021/09/04 02:17:47;;;;;;;;;;;;;;;;;;2099203;28;1752;-79
2021/09/04 02:18:49;;;;;;;;;;;;;;;;;;2091282;28;1543;-79
2021/09/04 02:19:52;;;;;;;;;;;;;;;;;;2089813;28;1842;-79
2021/09/04 02:20:52;;;;;;;;;;;;;;;;;;2090827;28;1537;-79
2021/09/04 02:21:54;;;;;;;;;;;;;;;;;;2084105;28;2031;-79
2021/09/04 02:22:55;;;;;;;;;;;;;;;;;;2083100;28;1649;-79
2021/09/04 02:23:59;;;;;;;;;;;;;;;;;;2091441;28;1305;-79
2021/09/04 02:25:02;;;;;;;;;;;;;;;;;;2090627;28;1836;-79
2021/09/04 02:26:05;;;;;;;;;;;;;;;;;;2083089;28;1679;-79
2021/09/04 02:27:07;;;;;;;;;;;;;;;;;;2071387;28;1514;-79
2021/09/04 02:28:14;;;;;;;;;;;;;;;;;;2065935;28;1545;-79
2021/09/04 02:29:15;;;;;;;;;;;;;;;;;;2083735;28;1083;-79
2021/09/04 02:30:18;;;;;;;;;;;;;;;;;;2090896;28;1656;-79
2021/09/04 02:31:23;;;;;;;;;;;;;;;;;;2074602;28;1973;-79
2021/09/04 02:32:25;;;;;;;;;;;;;;;;;;2067818;28;2010;-78
2021/09/04 02:33:27;;;;;;;;;;;;;;;;;;2074995;28;1716;-79
2021/09/04 02:34:31;;;;;;;;;;;;;;;;;;2083108;28;1555;-79
2021/09/04 02:35:32;;;;;;;;;;;;;;;;;;2090434;28;2142;-79
2021/09/04 02:36:34;;;;;;;;;;;;;;;;;;2091040;28;1576;-79
2021/09/04 02:37:35;;;;;;;;;;;;;;;;;;2089688;28;1937;-79
2021/09/04 02:38:36;;;;;;;;;;;;;;;;;;2090747;28;1691;-80
2021/09/04 02:39:38;;;;;;;;;;;;;;;;;;2082579;28;1970;-80
2021/09/04 02:40:40;;;;;;;;;;;;;;;;;;2090946;28;1417;-79
2021/09/04 02:41:42;;;;;;;;;;;;;;;;;;2074566;28;1505;-79
2021/09/04 02:42:44;;;;;;;;;;;;;;;;;;2074508;28;1755;-79
2021/09/04 02:43:49;;;;;;;;;;;;;;;;;;2083272;28;1531;-79
2021/09/04 02:44:52;;;;;;;;;;;;;;;;;;2092108;28;2024;-79
2021/09/04 02:45:53;;;;;;;;;;;;;;;;;;2099431;28;1577;-79
2021/09/04 02:46:55;;;;;;;;;;;;;;;;;;2099372;28;1707;-79
2021/09/04 02:47:57;;;;;;;;;;;;;;;;;;2099255;28;1299;-79
2021/09/04 02:48:59;;;;;;;;;;;;;;;;;;2090732;28;1742;-79
2021/09/04 02:50:01;;;;;;;;;;;;;;;;;;2087630;28;1894;-79
2021/09/04 02:51:04;;;;;;;;;;;;;;;;;;2082939;28;1984;-79
2021/09/04 02:52:06;;;;;;;;;;;;;;;;;;2090539;28;2085;-79
2021/09/04 02:53:08;;;;;;;;;;;;;;;;;;2091063;28;1539;-79
2021/09/04 02:54:09;;;;;;;;;;;;;;;;;;2090958;28;1679;-79
2021/09/04 02:55:11;;;;;;;;;;;;;;;;;;2090677;28;2103;-79
2021/09/04 02:56:13;;;;;;;;;;;;;;;;;;2082729;28;1528;-78
2021/09/04 02:57:17;;;;;;;;;;;;;;;;;;2087401;28;2099;-79
2021/09/04 02:58:18;;;;;;;;;;;;;;;;;;2090494;28;1775;-79
2021/09/04 02:59:21;;;;;;;;;;;;;;;;;;2090924;28;1342;-79
2021/09/04 03:00:22;;;;;;;;;;;;;;;;;;2091632;28;2069;-79
2021/09/04 03:01:24;;;;;;;;;;;;;;;;;;2092723;28;1791;-79
2021/09/04 03:02:25;;;;;;;;;;;;;;;;;;2092779;28;859;-79
2021/09/04 03:03:28;;;;;;;;;;;;;;;;;;2092303;28;1676;-79
2021/09/04 03:04:29;;;;;;;;;;;;;;;;;;2084467;28;1521;-79
2021/09/04 03:05:32;;;;;;;;;;;;;;;;;;2091148;28;1902;-79
2021/09/04 03:06:32;;;;;;;;;;;;;;;;;;2092254;28;1496;-79
2021/09/04 03:07:35;;;;;;;;;;;;;;;;;;2084153;28;1535;-79
2021/09/04 03:08:37;;;;;;;;;;;;;;;;;;2084495;28;1262;-79
2021/09/04 03:09:39;;;;;;;;;;;;;;;;;;2092333;28;1846;-80
2021/09/04 03:10:41;;;;;;;;;;;;;;;;;;2092110;28;1906;-79
2021/09/04 03:11:44;;;;;;;;;;;;;;;;;;2084341;28;1525;-79
2021/09/04 03:12:46;;;;;;;;;;;;;;;;;;2084173;28;1694;-79
2021/09/04 03:13:47;;;;;;;;;;;;;;;;;;2084135;28;1342;-79
2021/09/04 03:14:50;;;;;;;;;;;;;;;;;;2093648;28;2020;-79
2021/09/04 03:15:52;;;;;;;;;;;;;;;;;;2092461;28;1246;-79
2021/09/04 03:16:54;;;;;;;;;;;;;;;;;;2082655;28;1911;-79
2021/09/04 03:17:55;;;;;;;;;;;;;;;;;;2075563;28;1569;-79
2021/09/04 03:18:57;;;;;;;;;;;;;;;;;;2092601;28;796;-79
2021/09/04 03:19:59;;;;;;;;;;;;;;;;;;2094510;28;2012;-79
2021/09/04 03:21:01;;;;;;;;;;;;;;;;;;2092509;28;1674;-79
2021/09/04 03:22:03;;;;;;;;;;;;;;;;;;2091082;28;1857;-79
2021/09/04 03:23:04;;;;;;;;;;;;;;;;;;2100878;28;850;-79
2021/09/04 03:24:06;;;;;;;;;;;;;;;;;;2092300;28;1783;-79
2021/09/04 03:25:10;;;;;;;;;;;;;;;;;;2080502;28;1691;-79
2021/09/04 03:26:12;;;;;;;;;;;;;;;;;;2084323;28;1703;-79
2021/09/04 03:27:13;;;;;;;;;;;;;;;;;;2088311;28;2081;-79
2021/09/04 03:28:15;;;;;;;;;;;;;;;;;;2092274;28;1581;-79
2021/09/04 03:29:17;;;;;;;;;;;;;;;;;;2092658;28;776;-79
2021/09/04 03:30:22;;;;;;;;;;;;;;;;;;2087088;28;1810;-79
2021/09/04 03:31:23;;;;;;;;;;;;;;;;;;2084563;28;1906;-79
2021/09/04 03:32:25;;;;;;;;;;;;;;;;;;2084248;28;1563;-80
2021/09/04 03:33:26;;;;;;;;;;;;;;;;;;2083875;28;1538;-80
2021/09/04 03:34:27;;;;;;;;;;;;;;;;;;2084301;28;1643;-79
2021/09/04 03:35:28;;;;;;;;;;;;;;;;;;2092030;28;1894;-79
2021/09/04 03:36:30;;;;;;;;;;;;;;;;;;2092114;28;1553;-79
2021/09/04 03:37:31;;;;;;;;;;;;;;;;;;2084530;28;1761;-79
2021/09/04 03:38:33;;;;;;;;;;;;;;;;;;2084201;28;1642;-79
2021/09/04 03:39:35;;;;;;;;;;;;;;;;;;2084239;28;1698;-79
2021/09/04 03:40:40;;;;;;;;;;;;;;;;;;2099879;28;877;-82
2021/09/04 03:41:42;;;;;;;;;;;;;;;;;;2092309;28;1530;-82
2021/09/04 03:42:44;;;;;;;;;;;;;;;;;;2092589;28;1378;-82
2021/09/04 03:43:46;;;;;;;;;;;;;;;;;;2084284;28;1585;-82
2021/09/04 03:44:47;;;;;;;;;;;;;;;;;;2092477;28;1622;-82
2021/09/04 03:45:51;;;;;;;;;;;;;;;;;;2092437;28;1698;-82
2021/09/04 03:46:54;;;;;;;;;;;;;;;;;;2092613;28;1661;-82
2021/09/04 03:47:56;;;;;;;;;;;;;;;;;;2092166;28;1704;-83
2021/09/04 03:49:00;;;;;;;;;;;;;;;;;;2092282;28;1055;-82
2021/09/04 03:50:03;;;;;;;;;;;;;;;;;;2092927;28;1025;-82
2021/09/04 03:51:05;;;;;;;;;;;;;;;;;;2092689;28;1969;-82
2021/09/04 03:52:07;;;;;;;;;;;;;;;;;;2084098;28;1634;-82
2021/09/04 03:53:09;;;;;;;;;;;;;;;;;;2083989;28;1478;-82
2021/09/04 03:54:10;;;;;;;;;;;;;;;;;;2084334;28;1701;-81
2021/09/04 03:55:11;;;;;;;;;;;;;;;;;;2083859;28;1641;-82
2021/09/04 03:56:14;;;;;;;;;;;;;;;;;;2092382;28;1200;-82
2021/09/04 03:57:17;;;;;;;;;;;;;;;;;;2084287;28;1323;-82
2021/09/04 03:58:19;;;;;;;;;;;;;;;;;;2084027;28;1587;-82
2021/09/04 03:59:21;;;;;;;;;;;;;;;;;;2084184;28;1207;-82
2021/09/04 04:00:23;;;;;;;;;;;;;;;;;;2098205;28;2055;-82
2021/09/04 04:01:29;;;;;;;;;;;;;;;;;;2100917;28;1577;-82
2021/09/04 04:02:31;;;;;;;;;;;;;;;;;;2093261;28;2032;-82
2021/09/04 04:03:33;;;;;;;;;;;;;;;;;;2100618;28;1349;-82
2021/09/04 04:04:36;;;;;;;;;;;;;;;;;;2092384;28;1726;-82
2021/09/04 04:05:37;;;;;;;;;;;;;;;;;;2083459;28;1773;-82
2021/09/04 04:06:39;;;;;;;;;;;;;;;;;;2076601;28;1664;-82
2021/09/04 04:07:41;;;;;;;;;;;;;;;;;;2084029;28;1543;-82
2021/09/04 04:08:43;;;;;;;;;;;;;;;;;;2084604;28;1502;-82
2021/09/04 04:09:45;;;;;;;;;;;;;;;;;;2084607;28;1670;-83
2021/09/04 04:10:46;;;;;;;;;;;;;;;;;;2100437;28;1173;-82
2021/09/04 04:11:48;;;;;;;;;;;;;;;;;;2090985;28;1971;-82
2021/09/04 04:12:49;;;;;;;;;;;;;;;;;;2092034;28;1232;-83
2021/09/04 04:13:51;;;;;;;;;;;;;;;;;;2092161;28;875;-83
2021/09/04 04:14:53;;;;;;;;;;;;;;;;;;2092381;28;1734;-82
2021/09/04 04:15:56;;;;;;;;;;;;;;;;;;2077018;28;1549;-82
2021/09/04 04:17:00;;;;;;;;;;;;;;;;;;2075647;28;1361;-83
2021/09/04 04:18:00;;;;;;;;;;;;;;;;;;2083509;28;1443;-82
2021/09/04 04:19:02;;;;;;;;;;;;;;;;;;2092121;28;1368;-83
2021/09/04 04:20:04;;;;;;;;;;;;;;;;;;2088063;28;1957;-83
2021/09/04 04:21:06;;;;;;;;;;;;;;;;;;2084138;28;1274;-83
2021/09/04 04:22:07;;;;;;;;;;;;;;;;;;2092079;28;1226;-82
2021/09/04 04:23:09;;;;;;;;;;;;;;;;;;2091774;28;1773;-82
2021/09/04 04:24:10;;;;;;;;;;;;;;;;;;2091694;28;1433;-82
2021/09/04 04:25:13;;;;;;;;;;;;;;;;;;2083626;28;2053;-82
2021/09/04 04:26:13;;;;;;;;;;;;;;;;;;2083891;28;856;-82
2021/09/04 04:27:17;;;;;;;;;;;;;;;;;;2092336;28;1307;-82
2021/09/04 04:28:18;;;;;;;;;;;;;;;;;;2083521;28;1744;-83
2021/09/04 04:29:20;;;;;;;;;;;;;;;;;;2083566;28;1283;-83
2021/09/04 04:30:22;;;;;;;;;;;;;;;;;;2088886;28;1247;-82
2021/09/04 04:31:25;;;;;;;;;;;;;;;;;;2091770;28;1914;-84
2021/09/04 04:32:27;;;;;;;;;;;;;;;;;;2084017;28;1650;-81
2021/09/04 04:33:29;;;;;;;;;;;;;;;;;;2083723;28;1830;-83
2021/09/04 04:34:30;;;;;;;;;;;;;;;;;;2083798;28;1726;-81
2021/09/04 04:35:32;;;;;;;;;;;;;;;;;;2091020;28;1694;-82
2021/09/04 04:36:33;;;;;;;;;;;;;;;;;;2100693;28;1254;-82
2021/09/04 04:37:35;;;;;;;;;;;;;;;;;;2092084;28;1227;-82
2021/09/04 04:38:36;;;;;;;;;;;;;;;;;;2100396;28;1542;-81
2021/09/04 04:39:38;;;;;;;;;;;;;;;;;;2100221;28;1447;-83
2021/09/04 04:40:40;;;;;;;;;;;;;;;;;;2092341;28;900;-82
2021/09/04 04:41:43;;;;;;;;;;;;;;;;;;2091639;28;2010;-83
2021/09/04 04:42:44;;;;;;;;;;;;;;;;;;2094788;28;1287;-83
2021/09/04 04:43:46;;;;;;;;;;;;;;;;;;2099955;28;1402;-82
2021/09/04 04:44:47;;;;;;;;;;;;;;;;;;2092829;28;2040;-82
2021/09/04 04:45:48;;;;;;;;;;;;;;;;;;2100032;28;1558;-83
2021/09/04 04:46:49;;;;;;;;;;;;;;;;;;2099752;28;1759;-83
2021/09/04 04:47:53;;;;;;;;;;;;;;;;;;2075514;28;1376;-83
2021/09/04 04:48:54;;;;;;;;;;;;;;;;;;2076214;28;1738;-82
2021/09/04 04:49:57;;;;;;;;;;;;;;;;;;2083889;28;1562;-82
2021/09/04 04:50:59;;;;;;;;;;;;;;;;;;2084341;28;1731;-82
2021/09/04 04:52:02;;;;;;;;;;;;;;;;;;2083515;28;1918;-82
2021/09/04 04:53:03;;;;;;;;;;;;;;;;;;2075634;28;1828;-82
2021/09/04 04:54:05;;;;;;;;;;;;;;;;;;2083260;28;1514;-82
2021/09/04 04:55:06;;;;;;;;;;;;;;;;;;2099828;28;1249;-82
2021/09/04 04:56:08;;;;;;;;;;;;;;;;;;2091646;28;1866;-82
2021/09/04 04:57:10;;;;;;;;;;;;;;;;;;2083747;28;1521;-82
2021/09/04 04:58:12;;;;;;;;;;;;;;;;;;2083120;28;1756;-84
2021/09/04 04:59:15;;;;;;;;;;;;;;;;;;2092073;28;790;-82
2021/09/04 05:00:17;;;;;;;;;;;;;;;;;;2091276;28;1605;-82
2021/09/04 05:01:18;;;;;;;;;;;;;;;;;;2083952;28;1797;-82
2021/09/04 05:02:20;;;;;;;;;;;;;;;;;;2083348;28;1551;-82
2021/09/04 05:03:24;;;;;;;;;;;;;;;;;;2091920;28;809;-82
2021/09/04 05:04:25;;;;;;;;;;;;;;;;;;2097197;28;1331;-82
2021/09/04 05:05:28;;;;;;;;;;;;;;;;;;2091760;28;2013;-82
2021/09/04 05:06:30;;;;;;;;;;;;;;;;;;2091919;28;1200;-82
2021/09/04 05:07:32;;;;;;;;;;;;;;;;;;2091703;28;1552;-83
2021/09/04 05:08:34;;;;;;;;;;;;;;;;;;2092060;28;1218;-82
2021/09/04 05:09:37;;;;;;;;;;;;;;;;;;2091735;28;1738;-82
2021/09/04 05:10:38;;;;;;;;;;;;;;;;;;2091786;28;1924;-82
2021/09/04 05:11:39;;;;;;;;;;;;;;;;;;2083297;28;1910;-82
2021/09/04 05:12:40;;;;;;;;;;;;;;;;;;2092089;28;855;-82
2021/09/04 05:13:43;;;;;;;;;;;;;;;;;;2091413;28;1254;-82
2021/09/04 05:14:44;;;;;;;;;;;;;;;;;;2091840;28;1740;-83
2021/09/04 05:15:48;;;;;;;;;;;;;;;;;;2083297;28;1523;-82
2021/09/04 05:16:49;;;;;;;;;;;;;;;;;;2091797;28;769;-82
2021/09/04 05:17:52;;;;;;;;;;;;;;;;;;2091577;28;1230;-82
2021/09/04 05:18:55;;;;;;;;;;;;;;;;;;2091710;28;1419;-82
2021/09/04 05:19:57;;;;;;;;;;;;;;;;;;2091459;28;1511;-83
2021/09/04 05:20:58;;;;;;;;;;;;;;;;;;2083601;28;1578;-82
2021/09/04 05:22:00;;;;;;;;;;;;;;;;;;2091608;28;1277;-82
2021/09/04 05:23:01;;;;;;;;;;;;;;;;;;2083965;28;1198;-82
2021/09/04 05:24:04;;;;;;;;;;;;;;;;;;2091902;28;890;-82
2021/09/04 05:25:05;;;;;;;;;;;;;;;;;;2095323;28;1376;-82
2021/09/04 05:26:07;;;;;;;;;;;;;;;;;;2091793;28;1730;-82
2021/09/04 05:27:07;;;;;;;;;;;;;;;;;;2099448;28;1520;-82
2021/09/04 05:28:09;;;;;;;;;;;;;;;;;;2091682;28;1769;-83
2021/09/04 05:29:10;;;;;;;;;;;;;;;;;;2091703;28;1554;-83
2021/09/04 05:30:12;;;;;;;;;;;;;;;;;;2090808;28;1961;-83
2021/09/04 05:31:13;;;;;;;;;;;;;;;;;;2091765;28;1355;-82
2021/09/04 05:32:22;;;;;;;;;;;;;;;;;;2099263;28;1913;-82
2021/09/04 05:33:22;;;;;;;;;;;;;;;;;;2092754;28;1222;-83
2021/09/04 05:34:26;;;;;;;;;;;;;;;;;;2091261;28;1348;-82
2021/09/04 05:35:26;;;;;;;;;;;;;;;;;;2084802;28;1855;-82
2021/09/04 05:36:28;;;;;;;;;;;;;;;;;;2083237;28;1654;-82
2021/09/04 05:37:29;;;;;;;;;;;;;;;;;;2082842;28;1360;-83
2021/09/04 05:38:31;;;;;;;;;;;;;;;;;;2083155;28;1282;-82
2021/09/04 05:39:32;;;;;;;;;;;;;;;;;;2074981;28;1196;-82
2021/09/04 05:40:34;;;;;;;;;;;;;;;;;;2074436;28;1654;-83
2021/09/04 05:41:34;;;;;;;;;;;;;;;;;;2082787;28;1226;-81
2021/09/04 05:42:36;;;;;;;;;;;;;;;;;;2083288;28;1791;-82
2021/09/04 05:43:37;;;;;;;;;;;;;;;;;;2091415;28;1322;-82
2021/09/04 05:44:38;;;;;;;;;;;;;;;;;;2091437;28;1568;-82
2021/09/04 05:45:39;;;;;;;;;;;;;;;;;;2091453;28;1366;-82
2021/09/04 05:46:41;;;;;;;;;;;;;;;;;;2091774;28;1822;-83
2021/09/04 05:47:42;;;;;;;;;;;;;;;;;;2091567;28;920;-82
2021/09/04 05:48:44;;;;;;;;;;;;;;;;;;2091567;28;1441;-82
2021/09/04 05:49:46;;;;;;;;;;;;;;;;;;2091184;28;1261;-82
2021/09/04 05:50:48;;;;;;;;;;;;;;;;;;2091389;28;2057;-82
2021/09/04 05:51:48;;;;;;;;;;;;;;;;;;2090892;28;1977;-81
2021/09/04 05:52:50;;;;;;;;;;;;;;;;;;2083191;28;1672;-82
2021/09/04 05:53:51;;;;;;;;;;;;;;;;;;2088383;28;1655;-81
2021/09/04 05:54:53;;;;;;;;;;;;;;;;;;2083141;28;1697;-81
2021/09/04 05:55:55;;;;;;;;;;;;;;;;;;2074916;28;1348;-82
2021/09/04 05:56:55;;;;;;;;;;;;;;;;;;2082945;28;1874;-82
2021/09/04 05:57:57;;;;;;;;;;;;;;;;;;2091071;28;1766;-82
2021/09/04 05:58:59;;;;;;;;;;;;;;;;;;2082833;28;1395;-82
2021/09/04 06:00:00;;;;;;;;;;;;;;;;;;2085820;28;2072;-82
2021/09/04 06:01:02;;;;;;;;;;;;;;;;;;2091737;28;1634;-82
2021/09/04 06:02:02;;;;;;;;;;;;;;;;;;2099518;28;1308;-81
2021/09/04 06:03:04;;;;;;;;;;;;;;;;;;2091618;28;1616;-82
2021/09/04 06:04:05;;;;;;;;;;;;;;;;;;2091125;28;1817;-82
2021/09/04 06:05:09;;;;;;;;;;;;;;;;;;2099797;28;1300;-82
2021/09/04 06:06:10;;;;;;;;;;;;;;;;;;2091374;28;1242;-81
2021/09/04 06:07:11;;;;;;;;;;;;;;;;;;2091257;28;1342;-81
2021/09/04 06:08:12;;;;;;;;;;;;;;;;;;2091147;28;1334;-81
2021/09/04 06:09:14;;;;;;;;;;;;;;;;;;2099650;28;1282;-81
2021/09/04 06:10:16;;;;;;;;;;;;;;;;;;2094251;28;2043;-82
2021/09/04 06:11:19;;;;;;;;;;;;;;;;;;2091305;28;1570;-81
2021/09/04 06:12:20;;;;;;;;;;;;;;;;;;2090997;28;1977;-81
2021/09/04 06:13:22;;;;;;;;;;;;;;;;;;2082908;28;1538;-81
2021/09/04 06:14:23;;;;;;;;;;;;;;;;;;2074213;28;1776;-81
2021/09/04 06:15:25;;;;;;;;;;;;;;;;;;2088978;28;2028;-82
2021/09/04 06:16:26;;;;;;;;;;;;;;;;;;2090880;28;1606;-81
2021/09/04 06:17:27;;;;;;;;;;;;;;;;;;2091268;28;1270;-81
2021/09/04 06:18:28;;;;;;;;;;;;;;;;;;2091756;28;1247;-81
2021/09/04 06:19:30;;;;;;;;;;;;;;;;;;2091211;28;1334;-81
2021/09/04 06:20:32;;;;;;;;;;;;;;;;;;2091303;28;1875;-81
2021/09/04 06:21:34;;;;;;;;;;;;;;;;;;2091481;28;1640;-82
2021/09/04 06:22:36;;;;;;;;;;;;;;;;;;2098862;28;1754;-79
2021/09/04 06:23:37;;;;;;;;;;;;;;;;;;2099401;28;1708;-82
2021/09/04 06:24:38;;;;;;;;;;;;;;;;;;2091388;28;1453;-81
2021/09/04 06:25:39;;;;;;;;;;;;;;;;;;2091186;28;1755;-80
2021/09/04 06:26:41;;;;;;;;;;;;;;;;;;2090518;28;1534;-80
2021/09/04 06:27:42;;;;;;;;;;;;;;;;;;2090726;28;1384;-80
2021/09/04 06:28:43;;;;;;;;;;;;;;;;;;2091060;28;1389;-81
2021/09/04 06:29:44;;;;;;;;;;;;;;;;;;2090531;28;1275;-80
2021/09/04 06:30:46;;;;;;;;;;;;;;;;;;2091078;28;1262;-79
2021/09/04 06:31:47;;;;;;;;;;;;;;;;;;2090917;28;1256;-80
2021/09/04 06:32:48;;;;;;;;;;;;;;;;;;2082887;28;1969;-80
2021/09/04 06:33:49;;;;;;;;;;;;;;;;;;2082915;28;1695;-80
2021/09/04 06:34:51;;;;;;;;;;;;;;;;;;2083103;28;1570;-80
2021/09/04 06:35:53;;;;;;;;;;;;;;;;;;2082958;28;1376;-80
2021/09/04 06:36:55;;;;;;;;;;;;;;;;;;2091182;28;820;-80
2021/09/04 06:37:56;;;;;;;;;;;;;;;;;;2090955;28;1556;-80
2021/09/04 06:38:58;;;;;;;;;;;;;;;;;;2082520;28;1407;-80
2021/09/04 06:39:58;;;;;;;;;;;;;;;;;;2082895;28;2013;-80
2021/09/04 06:41:00;;;;;;;;;;;;;;;;;;2082868;28;1322;-80
2021/09/04 06:42:01;;;;;;;;;;;;;;;;;;2082694;28;1211;-81
2021/09/04 06:43:03;;;;;;;;;;;;;;;;;;2082966;28;1632;-81
2021/09/04 06:44:04;;;;;;;;;;;;;;;;;;2082134;28;1495;-80
2021/09/04 06:45:06;;;;;;;;;;;;;;;;;;2082682;28;2017;-81
2021/09/04 06:46:07;;;;;;;;;;;;;;;;;;2082510;28;1573;-82
2021/09/04 06:47:08;;;;;;;;;;;;;;;;;;2087575;28;1555;-81
2021/09/04 06:48:09;;;;;;;;;;;;;;;;;;2090796;28;1605;-81
2021/09/04 06:49:11;;;;;;;;;;;;;;;;;;2091140;28;1219;-80
2021/09/04 06:50:12;;;;;;;;;;;;;;;;;;2082186;28;1679;-80
2021/09/04 06:51:15;;;;;;;;;;;;;;;;;;2082757;28;1653;-81
2021/09/04 06:52:16;;;;;;;;;;;;;;;;;;2090942;28;1949;-81
2021/09/04 06:53:18;;;;;;;;;;;;;;;;;;2091019;28;1266;-80
2021/09/04 06:54:23;;;;;;;;;;;;;;;;;;2090960;28;1749;-80
2021/09/04 06:55:25;;;;;;;;;;;;;;;;;;2088926;28;2092;-81
2021/09/04 06:56:26;;;;;;;;;;;;;;;;;;2090664;28;1552;-80
2021/09/04 06:57:28;;;;;;;;;;;;;;;;;;2089025;28;1669;-81
2021/09/04 06:58:28;;;;;;;;;;;;;;;;;;2086100;28;1362;-80
2021/09/04 06:59:30;;;;;;;;;;;;;;;;;;2090432;28;1565;-81
2021/09/04 07:00:31;;;;;;;;;;;;;;;;;;2090499;28;1480;-81
2021/09/04 07:01:33;;;;;;;;;;;;;;;;;;2090803;28;1627;-81
2021/09/04 07:02:33;;;;;;;;;;;;;;;;;;2099152;28;1750;-80
2021/09/04 07:03:35;;;;;;;;;;;;;;;;;;2099059;28;1802;-79
2021/09/04 07:04:36;;;;;;;;;;;;;;;;;;2096648;28;1530;-81
2021/09/04 07:05:38;;;;;;;;;;;;;;;;;;2085490;28;2032;-81
2021/09/04 07:06:42;;;;;;;;;;;;;;;;;;2085031;28;1823;-81
2021/09/04 07:07:45;;;;;;;;;;;;;;;;;;2095190;28;1248;-79
2021/09/04 07:08:46;;;;;;;;;;;;;;;;;;2096929;28;1602;-79